Flight Track Log - Related Links

Times and Time Zones

All times are in EDT time to prevent confusion due to time zone crossing. See the SWA1017 flight status page for this flight to view local times or setup timezone preferences in your user account.

Time Position Orientation Groundspeed Altitude Reporting Facility
EDT Latitude Longitude Course Direction KTS MPH feet Rate Location/Type
Wed 03:03:48 PM 26.2375 -97.6589 North 139 160 1,000  Level Houston Center
Wed 03:04:48 PM 26.2817 -97.6575 North 165 190 3,300 2,000 Climbing Houston Center
Wed 03:05:15 PM 26.3114 -97.6528 North 203 234 3,900 2,262 Climbing Houston Center
Wed 03:05:49 PM 26.3583 -97.6472 North 298 343 5,600 3,387 Climbing Houston Center
Wed 03:06:17 PM 26.3894 -97.6436 North 278 320 7,400 3,733 Climbing Houston Center
Wed 03:07:19 PM 26.4764 -97.6319 North 303 349 11,200 3,677 Climbing Houston Center
Wed 03:08:21 PM 26.5783 -97.6178 North 371 427 15,000 3,629 Climbing Houston Center
Wed 03:09:23 PM 26.6878 -97.6042 North 370 426 18,700 3,435 Climbing Houston Center
Wed 03:10:25 PM 26.7950 -97.5892 North 385 443 22,100 2,952 Climbing Houston Center
Wed 03:11:27 PM 26.9150 -97.5767 North 404 465 24,800 2,565 Climbing Houston Center
Wed 03:12:29 PM 27.0272 -97.6114 345° North 427 491 27,400 2,323 Climbing Houston Center
Wed 03:13:31 PM 27.1442 -97.6469 345° North 425 489 29,600 2,226 Climbing Houston Center
Wed 03:14:33 PM 27.2547 -97.6853 343° North 420 483 32,000 2,226 Climbing Houston Center
Wed 03:15:35 PM 27.3719 -97.7225 344° North 434 499 34,200 1,452 Climbing Houston Center
Wed 03:16:37 PM 27.4850 -97.7575 345° North 428 493 35,000 387 Climbing Houston Center
Wed 03:17:39 PM 27.6181 -97.8014 344° North 418 481 35,000  Level Houston Center
Wed 03:18:41 PM 27.7283 -97.8358 345° North 415 478 35,000  Level Houston Center
Wed 03:19:43 PM 27.8389 -97.8717 344° North 416 479 35,000  Level Houston Center
Wed 03:20:45 PM 27.9483 -97.9064 344° North 413 475 35,000  Level Houston Center
Wed 03:21:48 PM 28.0592 -97.9422 344° North 414 476 35,000  Level Houston Center
Wed 03:22:49 PM 28.1889 -97.9833 344° North 414 476 35,000  Level Houston Center
Wed 03:23:52 PM 28.2997 -98.0194 344° North 414 476 35,000  Level Houston Center
Wed 03:24:54 PM 28.4097 -98.0556 344° North 412 474 35,000  Level Houston Center
Wed 03:25:56 PM 28.5219 -98.0931 344° North 417 480 35,000 -387 Level Houston Center
Wed 03:26:58 PM 28.6319 -98.1286 344° North 412 474 34,200 -919 Descending Houston Center
Wed 03:28:00 PM 28.7603 -98.1714 344° North 410 472 33,100 -1,161 Descending Houston Center
Wed 03:29:02 PM 28.8783 -98.2089 344° North 408 470 31,800 -1,597 Descending Houston Center
Wed 03:30:04 PM 28.9858 -98.2439 344° North 403 464 29,800 -2,016 Descending Houston Center
Wed 03:31:07 PM 29.0961 -98.2803 344° North 382 440 27,600 -2,016 Descending Houston Center
Wed 03:32:09 PM 29.1950 -98.3133 344° North 370 426 25,600 -1,742 Descending Houston Center
Wed 03:33:11 PM 29.2922 -98.3450 344° North 363 418 24,000 -1,152 Descending Houston Center
Wed 03:34:14 PM 29.3967 -98.3792 344° North 364 419 23,200 -871 Descending Houston Center
Wed 03:35:15 PM 29.4944 -98.4114 344° North 366 421 22,200 -1,024 Descending Houston Center
Wed 03:36:17 PM 29.5933 -98.4444 344° North 364 419 21,100 -1,016 Descending Houston Center
Wed 03:37:19 PM 29.7000 -98.4217 11° North 373 429 20,100 -960 Descending Houston Center
Wed 03:38:22 PM 29.7875 -98.3581 32° Northeast 373 429 19,100 -1,008 Descending Houston Center
Wed 03:39:24 PM 29.8806 -98.2906 32° Northeast 365 420 18,000 -871 Descending Houston Center
Wed 03:40:26 PM 29.9656 -98.2297 32° Northeast 361 415 17,300 -1,210 Descending Houston Center
Wed 03:41:28 PM 30.0494 -98.1697 32° Northeast 356 410 15,500 -1,742 Descending Houston Center
Wed 03:42:30 PM 30.1269 -98.0911 41° Northeast 342 394 13,700 -1,597 Descending Houston Center
Wed 03:43:32 PM 30.1286 -97.9886 89° East 318 366 12,200 -2,516 Descending Houston Center
Wed 03:44:34 PM 30.1228 -97.8889 94° East 291 335 8,500 -3,120 Descending Houston Center
Wed 03:45:37 PM 30.1183 -97.7961 93° East 286 329 5,700 -2,160 Descending Houston Center
Wed 03:46:39 PM 30.0794 -97.7478 133° Southeast 246 283 4,000 -1,016 Descending Houston Center
Wed 03:47:41 PM 30.0456 -97.7014 130° Southeast 203 234 3,600 -629 Descending Houston Center
Wed 03:48:43 PM 30.0853 -97.6725 32° Northeast 185 213 2,700 -919 Descending Houston Center
Wed 03:49:45 PM 30.1303 -97.6778 354° North 167 192 1,700 -629 Descending Houston Center
Wed 03:50:47 PM 30.1731 -97.6819 355° North 159 183 1,400 -290 Descending Houston Center
Wed 03:52:00 PM 30.1945 -97.6699 38° Northeast  Level Estimated
Wed 03:59:00 PM 30.1945 -97.6699 221° Southwest  Level Estimated
Wed 04:00:00 PM 30.1945 -97.6699 221° Southwest  Level Estimated

Login

Don't have an account? Register now (free) for customized features, flight alerts, and more!